sensor_id;sensor_type;location;lat;lon;timestamp;pressure;altitude;pressure_sealevel;temperature;humidity
46724;BME280;32463;48.298;11.620;2023-02-12T00:01:57;98145.50;;;3.29;100.00
46724;BME280;32463;48.298;11.620;2023-02-12T00:04:24;98158.25;;;3.30;100.00
46724;BME280;32463;48.298;11.620;2023-02-12T00:06:50;98159.16;;;3.29;100.00
46724;BME280;32463;48.298;11.620;2023-02-12T00:09:17;98165.81;;;3.33;100.00
46724;BME280;32463;48.298;11.620;2023-02-12T00:11:43;98159.16;;;3.29;100.00
46724;BME280;32463;48.298;11.620;2023-02-12T00:14:09;98158.38;;;3.27;100.00
46724;BME280;32463;48.298;11.620;2023-02-12T00:16:36;98158.25;;;3.30;100.00
46724;BME280;32463;48.298;11.620;2023-02-12T00:19:02;98166.13;;;3.45;100.00
46724;BME280;32463;48.298;11.620;2023-02-12T00:21:29;98156.78;;;3.44;100.00
46724;BME280;32463;48.298;11.620;2023-02-12T00:23:56;98152.75;;;3.38;100.00
46724;BME280;32463;48.298;11.620;2023-02-12T00:26:23;98162.56;;;3.30;100.00
46724;BME280;32463;48.298;11.620;2023-02-12T00:28:50;98164.47;;;3.25;100.00
46724;BME280;32463;48.298;11.620;2023-02-12T00:31:22;98168.78;;;3.24;100.00
46724;BME280;32463;48.298;11.620;2023-02-12T00:33:49;98164.47;;;3.25;100.00
46724;BME280;32463;48.298;11.620;2023-02-12T00:36:18;98153.78;;;3.15;100.00
46724;BME280;32463;48.298;11.620;2023-02-12T00:38:46;98165.72;;;3.16;100.00
46724;BME280;32463;48.298;11.620;2023-02-12T00:41:14;98154.13;;;3.08;100.00
46724;BME280;32463;48.298;11.620;2023-02-12T00:43:41;98160.97;;;3.07;100.00
46724;BME280;32463;48.298;11.620;2023-02-12T00:46:08;98169.50;;;3.08;100.00
46724;BME280;32463;48.298;11.620;2023-02-12T00:48:35;98151.94;;;3.00;100.00
46724;BME280;32463;48.298;11.620;2023-02-12T00:51:03;98165.91;;;3.12;100.00
46724;BME280;32463;48.298;11.620;2023-02-12T00:53:33;98162.13;;;3.20;100.00
46724;BME280;32463;48.298;11.620;2023-02-12T00:56:00;98160.44;;;3.19;100.00
46724;BME280;32463;48.298;11.620;2023-02-12T00:58:27;98166.53;;;3.17;100.00
46724;BME280;32463;48.298;11.620;2023-02-12T01:00:54;98176.88;;;3.15;100.00
46724;BME280;32463;48.298;11.620;2023-02-12T01:03:20;98175.41;;;3.10;100.00
46724;BME280;32463;48.298;11.620;2023-02-12T01:05:47;98181.22;;;3.13;100.00
46724;BME280;32463;48.298;11.620;2023-02-12T01:08:15;98174.50;;;3.11;100.00
46724;BME280;32463;48.298;11.620;2023-02-12T01:10:42;98174.28;;;3.15;100.00
46724;BME280;32463;48.298;11.620;2023-02-12T01:13:13;98176.47;;;3.24;100.00
46724;BME280;32463;48.298;11.620;2023-02-12T01:15:41;98170.31;;;3.28;100.00
46724;BME280;32463;48.298;11.620;2023-02-12T01:18:07;98173.91;;;3.24;100.00
46724;BME280;32463;48.298;11.620;2023-02-12T01:20:35;98175.63;;;3.24;100.00
46724;BME280;32463;48.298;11.620;2023-02-12T01:23:01;98169.03;;;3.18;100.00
46724;BME280;32463;48.298;11.620;2023-02-12T01:25:31;98164.69;;;3.20;100.00
46724;BME280;32463;48.298;11.620;2023-02-12T01:27:57;98172.38;;;3.20;100.00
46724;BME280;32463;48.298;11.620;2023-02-12T01:30:24;98175.06;;;3.17;100.00
46724;BME280;32463;48.298;11.620;2023-02-12T01:32:50;98180.19;;;3.17;100.00
46724;BME280;32463;48.298;11.620;2023-02-12T01:35:17;98175.97;;;3.16;100.00
46724;BME280;32463;48.298;11.620;2023-02-12T01:37:44;98169.31;;;3.12;100.00
46724;BME280;32463;48.298;11.620;2023-02-12T01:40:18;98176.09;;;3.13;100.00
46724;BME280;32463;48.298;11.620;2023-02-12T01:42:44;98169.31;;;3.12;100.00
46724;BME280;32463;48.298;11.620;2023-02-12T01:47:39;98176.22;;;3.10;100.00
46724;BME280;32463;48.298;11.620;2023-02-12T01:50:08;98172.13;;;3.06;100.00
46724;BME280;32463;48.298;11.620;2023-02-12T01:52:37;98178.19;;;3.05;100.00
46724;BME280;32463;48.298;11.620;2023-02-12T01:55:08;98171.41;;;3.04;100.00
46724;BME280;32463;48.298;11.620;2023-02-12T01:57:38;98166.41;;;3.01;100.00
46724;BME280;32463;48.298;11.620;2023-02-12T02:00:09;98174.16;;;2.99;100.00
46724;BME280;32463;48.298;11.620;2023-02-12T02:02:37;98166.41;;;3.01;100.00
46724;BME280;32463;48.298;11.620;2023-02-12T02:05:06;98158.09;;;2.96;100.00
46724;BME280;32463;48.298;11.620;2023-02-12T02:07:32;98158.78;;;2.99;100.00
46724;BME280;32463;48.298;11.620;2023-02-12T02:10:00;98163.06;;;2.99;100.00
46724;BME280;32463;48.298;11.620;2023-02-12T02:12:28;98155.53;;;2.96;100.00
46724;BME280;32463;48.298;11.620;2023-02-12T02:15:13;98151.28;;;2.95;100.00
46724;BME280;32463;48.298;11.620;2023-02-12T02:26:16;98160.91;;;2.90;100.00
46724;BME280;32463;48.298;11.620;2023-02-12T02:28:51;98143.22;;;2.84;100.00
46724;BME280;32463;48.298;11.620;2023-02-12T02:31:40;98149.25;;;2.83;100.00
46724;BME280;32463;48.298;11.620;2023-02-12T02:34:33;98143.22;;;2.84;100.00
46724;BME280;32463;48.298;11.620;2023-02-12T02:37:22;98145.03;;;2.82;100.00
46724;BME280;32463;48.298;11.620;2023-02-12T02:40:06;98154.50;;;2.80;100.00
46724;BME280;32463;48.298;11.620;2023-02-12T02:42:53;98158.84;;;2.78;100.00
46724;BME280;32463;48.298;11.620;2023-02-12T02:45:28;98153.06;;;2.74;100.00
46724;BME280;32463;48.298;11.620;2023-02-12T02:48:04;98163.72;;;2.84;100.00
46724;BME280;32463;48.298;11.620;2023-02-12T02:50:34;98153.81;;;2.76;100.00
46724;BME280;32463;48.298;11.620;2023-02-12T02:53:09;98172.44;;;2.80;100.00
46724;BME280;32463;48.298;11.620;2023-02-12T02:55:42;98174.22;;;2.78;100.00
46724;BME280;32463;48.298;11.620;2023-02-12T02:58:20;98172.56;;;2.77;100.00
46724;BME280;32463;48.298;11.620;2023-02-12T03:00:58;98170.75;;;2.79;100.00
46724;BME280;32463;48.298;11.620;2023-02-12T03:03:31;98170.09;;;2.75;100.00
46724;BME280;32463;48.298;11.620;2023-02-12T03:06:11;98171.06;;;2.73;100.00
46724;BME280;32463;48.298;11.620;2023-02-12T03:08:46;98165.94;;;2.73;100.00
46724;BME280;32463;48.298;11.620;2023-02-12T03:11:24;98165.94;;;2.73;100.00
46724;BME280;32463;48.298;11.620;2023-02-12T03:14:20;98161.00;;;2.68;100.00
46724;BME280;32463;48.298;11.620;2023-02-12T03:16:55;98164.66;;;2.62;100.00
46724;BME280;32463;48.298;11.620;2023-02-12T03:19:28;98167.47;;;2.56;100.00
46724;BME280;32463;48.298;11.620;2023-02-12T03:22:08;98167.06;;;2.45;100.00
46724;BME280;32463;48.298;11.620;2023-02-12T03:24:40;98170.38;;;2.47;100.00
46724;BME280;32463;48.298;11.620;2023-02-12T03:27:17;98165.69;;;2.38;100.00
46724;BME280;32463;48.298;11.620;2023-02-12T03:29:45;98177.56;;;2.39;100.00
46724;BME280;32463;48.298;11.620;2023-02-12T03:32:22;98182.81;;;2.36;100.00
46724;BME280;32463;48.298;11.620;2023-02-12T03:40:03;98173.06;;;2.24;100.00
46724;BME280;32463;48.298;11.620;2023-02-12T03:42:56;98179.84;;;2.25;100.00
46724;BME280;32463;48.298;11.620;2023-02-12T03:48:29;98169.75;;;2.22;100.00
46724;BME280;32463;48.298;11.620;2023-02-12T03:53:44;98183.31;;;2.24;100.00
46724;BME280;32463;48.298;11.620;2023-02-12T03:56:22;98177.28;;;2.25;100.00
46724;BME280;32463;48.298;11.620;2023-02-12T03:58:50;98179.84;;;2.25;100.00
46724;BME280;32463;48.298;11.620;2023-02-12T04:01:16;98185.88;;;2.24;100.00
46724;BME280;32463;48.298;11.620;2023-02-12T04:03:43;98196.09;;;2.24;100.00
46724;BME280;32463;48.298;11.620;2023-02-12T04:06:21;98198.66;;;2.24;100.00
46724;BME280;32463;48.298;11.620;2023-02-12T04:08:48;98191.88;;;2.23;100.00
46724;BME280;32463;48.298;11.620;2023-02-12T04:14:39;98202.94;;;2.23;100.00
46724;BME280;32463;48.298;11.620;2023-02-12T04:20:27;98213.25;;;2.22;100.00
46724;BME280;32463;48.298;11.620;2023-02-12T04:28:44;98211.06;;;2.13;100.00
46724;BME280;32463;48.298;11.620;2023-02-12T04:31:28;98211.31;;;2.07;100.00
46724;BME280;32463;48.298;11.620;2023-02-12T04:34:18;98218.19;;;2.05;100.00
46724;BME280;32463;48.298;11.620;2023-02-12T04:36:57;98212.25;;;2.04;100.00
46724;BME280;32463;48.298;11.620;2023-02-12T04:39:28;98218.31;;;2.01;100.00
46724;BME280;32463;48.298;11.620;2023-02-12T04:42:00;98220.34;;;1.93;100.00
46724;BME280;32463;48.298;11.620;2023-02-12T04:44:38;98223.78;;;1.92;100.00
46724;BME280;32463;48.298;11.620;2023-02-12T04:47:05;98234.84;;;1.93;100.00
46724;BME280;32463;48.298;11.620;2023-02-12T04:49:31;98228.91;;;1.92;100.00
46724;BME280;32463;48.298;11.620;2023-02-12T04:51:58;98229.78;;;1.91;100.00
46724;BME280;32463;48.298;11.620;2023-02-12T04:54:24;98225.44;;;1.93;100.00
46724;BME280;32463;48.298;11.620;2023-02-12T04:56:51;98222.13;;;1.91;100.00
46724;BME280;32463;48.298;11.620;2023-02-12T04:59:17;98233.94;;;1.94;100.00
46724;BME280;32463;48.298;11.620;2023-02-12T05:01:44;98231.41;;;1.94;100.00
46724;BME280;32463;48.298;11.620;2023-02-12T05:04:13;98228.91;;;1.92;100.00
46724;BME280;32463;48.298;11.620;2023-02-12T05:06:41;98231.41;;;1.94;100.00
46724;BME280;32463;48.298;11.620;2023-02-12T05:09:12;98230.69;;;1.90;100.00
46724;BME280;32463;48.298;11.620;2023-02-12T05:11:39;98235.00;;;1.88;100.00
46724;BME280;32463;48.298;11.620;2023-02-12T05:14:06;98236.72;;;1.88;100.00
46724;BME280;32463;48.298;11.620;2023-02-12T05:16:33;98235.78;;;1.90;100.00
46724;BME280;32463;48.298;11.620;2023-02-12T05:19:00;98234.91;;;1.91;100.00
46724;BME280;32463;48.298;11.620;2023-02-12T05:21:27;98244.25;;;1.92;100.00
46724;BME280;32463;48.298;11.620;2023-02-12T05:23:54;98243.41;;;1.92;100.00
46724;BME280;32463;48.298;11.620;2023-02-12T05:26:21;98252.81;;;1.91;100.00
46724;BME280;32463;48.298;11.620;2023-02-12T05:28:47;98252.91;;;1.88;100.00
46724;BME280;32463;48.298;11.620;2023-02-12T05:31:16;98250.19;;;1.93;100.00
46724;BME280;32463;48.298;11.620;2023-02-12T05:33:44;98251.25;;;1.87;100.00
46724;BME280;32463;48.298;11.620;2023-02-12T05:36:15;98252.81;;;1.91;100.00
46724;BME280;32463;48.298;11.620;2023-02-12T05:38:42;98253.75;;;1.89;100.00
46724;BME280;32463;48.298;11.620;2023-02-12T05:41:20;98250.34;;;1.88;100.00
46724;BME280;32463;48.298;11.620;2023-02-12T05:43:47;98259.03;;;1.84;100.00
46724;BME280;32463;48.298;11.620;2023-02-12T05:46:14;98250.66;;;1.81;100.00
46724;BME280;32463;48.298;11.620;2023-02-12T05:48:40;98260.00;;;1.82;100.00
46724;BME280;32463;48.298;11.620;2023-02-12T05:51:14;98262.38;;;1.86;100.00
46724;BME280;32463;48.298;11.620;2023-02-12T05:53:41;98261.59;;;1.84;100.00
46724;BME280;32463;48.298;11.620;2023-02-12T05:56:10;98248.16;;;1.79;100.00
46724;BME280;32463;48.298;11.620;2023-02-12T05:58:37;98246.50;;;1.78;100.00
46724;BME280;32463;48.298;11.620;2023-02-12T06:01:19;98254.94;;;1.80;100.00
46724;BME280;32463;48.298;11.620;2023-02-12T06:03:46;98256.66;;;1.80;100.00
46724;BME280;32463;48.298;11.620;2023-02-12T06:06:13;98256.84;;;1.75;100.00
46724;BME280;32463;48.298;11.620;2023-02-12T06:08:40;98263.50;;;1.79;100.00
46724;BME280;32463;48.298;11.620;2023-02-12T06:11:10;98255.06;;;1.77;100.00
46724;BME280;32463;48.298;11.620;2023-02-12T06:13:37;98266.00;;;1.81;100.00
46724;BME280;32463;48.298;11.620;2023-02-12T06:16:04;98259.28;;;1.78;100.00
46724;BME280;32463;48.298;11.620;2023-02-12T06:18:34;98260.19;;;1.77;100.00
46724;BME280;32463;48.298;11.620;2023-02-12T06:21:04;98257.56;;;1.79;100.00
46724;BME280;32463;48.298;11.620;2023-02-12T06:23:31;98255.06;;;1.77;100.00
46724;BME280;32463;48.298;11.620;2023-02-12T06:25:57;98271.97;;;1.81;100.00
46724;BME280;32463;48.298;11.620;2023-02-12T06:28:24;98267.63;;;1.83;100.00
46724;BME280;32463;48.298;11.620;2023-02-12T06:30:50;98265.19;;;1.80;100.00
46724;BME280;32463;48.298;11.620;2023-02-12T06:33:17;98265.19;;;1.80;100.00
46724;BME280;32463;48.298;11.620;2023-02-12T06:35:43;98271.97;;;1.81;100.00
46724;BME280;32463;48.298;11.620;2023-02-12T06:38:10;98272.78;;;1.82;100.00
46724;BME280;32463;48.298;11.620;2023-02-12T06:40:36;98271.19;;;1.79;100.00
46724;BME280;32463;48.298;11.620;2023-02-12T06:43:03;98282.03;;;1.84;100.00
46724;BME280;32463;48.298;11.620;2023-02-12T06:45:29;98280.25;;;1.86;100.00
46724;BME280;32463;48.298;11.620;2023-02-12T06:47:56;98278.50;;;1.88;100.00
46724;BME280;32463;48.298;11.620;2023-02-12T06:50:22;98279.38;;;1.87;100.00
46724;BME280;32463;48.298;11.620;2023-02-12T06:52:49;98273.25;;;1.91;100.00
46724;BME280;32463;48.298;11.620;2023-02-12T06:55:16;98286.00;;;1.93;100.00
46724;BME280;32463;48.298;11.620;2023-02-12T06:57:42;98281.72;;;1.93;100.00
46724;BME280;32463;48.298;11.620;2023-02-12T07:00:09;98286.81;;;1.93;100.00
46724;BME280;32463;48.298;11.620;2023-02-12T07:02:36;98287.78;;;1.91;100.00
46724;BME280;32463;48.298;11.620;2023-02-12T07:05:03;98283.38;;;1.94;100.00
46724;BME280;32463;48.298;11.620;2023-02-12T07:07:29;98282.31;;;2.00;100.00
46724;BME280;32463;48.298;11.620;2023-02-12T07:09:56;98285.88;;;1.96;100.00
46724;BME280;32463;48.298;11.620;2023-02-12T07:12:22;98287.44;;;2.00;100.00
46724;BME280;32463;48.298;11.620;2023-02-12T07:14:49;98290.53;;;2.08;100.00
46724;BME280;32463;48.298;11.620;2023-02-12T07:17:15;98291.25;;;2.12;100.00
46724;BME280;32463;48.298;11.620;2023-02-12T07:19:42;98285.16;;;2.14;100.00
46724;BME280;32463;48.298;11.620;2023-02-12T07:22:08;98276.53;;;2.17;100.00
46724;BME280;32463;48.298;11.620;2023-02-12T07:24:34;98280.44;;;2.27;100.00
46724;BME280;32463;48.298;11.620;2023-02-12T07:27:03;98286.44;;;2.26;100.00
46724;BME280;32463;48.298;11.620;2023-02-12T07:29:29;98284.25;;;2.39;100.00
46724;BME280;32463;48.298;11.620;2023-02-12T07:31:56;98284.66;;;2.28;100.00
46724;BME280;32463;48.298;11.620;2023-02-12T07:34:23;98277.63;;;2.33;100.00
46724;BME280;32463;48.298;11.620;2023-02-12T07:36:49;98283.41;;;2.38;100.00
46724;BME280;32463;48.298;11.620;2023-02-12T07:39:16;98280.31;;;2.30;100.00
46724;BME280;32463;48.298;11.620;2023-02-12T07:41:42;98280.72;;;2.41;100.00
46724;BME280;32463;48.298;11.620;2023-02-12T07:44:10;98282.41;;;2.42;100.00
46724;BME280;32463;48.298;11.620;2023-02-12T07:46:47;98285.06;;;2.39;100.00
46724;BME280;32463;48.298;11.620;2023-02-12T07:49:23;98288.09;;;2.49;100.00
46724;BME280;32463;48.298;11.620;2023-02-12T07:51:49;98290.88;;;2.64;100.00
46724;BME280;32463;48.298;11.620;2023-02-12T07:54:16;98281.09;;;2.74;100.00
46724;BME280;32463;48.298;11.620;2023-02-12T07:56:43;98273.50;;;2.73;100.00
46724;BME280;32463;48.298;11.620;2023-02-12T07:59:14;98272.38;;;2.78;100.00
46724;BME280;32463;48.298;11.620;2023-02-12T08:01:45;98279.75;;;2.86;100.00
46724;BME280;32463;48.298;11.620;2023-02-12T08:04:14;98286.34;;;2.91;100.00
46724;BME280;32463;48.298;11.620;2023-02-12T08:06:43;98289.09;;;3.07;100.00
46724;BME280;32463;48.298;11.620;2023-02-12T08:09:12;98281.94;;;3.15;100.00
46724;BME280;32463;48.298;11.620;2023-02-12T08:11:40;98284.63;;;3.32;100.00
46724;BME280;32463;48.298;11.620;2023-02-12T08:14:08;98286.00;;;3.39;100.00
46724;BME280;32463;48.298;11.620;2023-02-12T08:16:37;98281.75;;;3.38;100.00
46724;BME280;32463;48.298;11.620;2023-02-12T08:19:06;98279.09;;;3.21;100.00
46724;BME280;32463;48.298;11.620;2023-02-12T08:21:33;98281.94;;;3.15;100.00
46724;BME280;32463;48.298;11.620;2023-02-12T08:24:00;98282.81;;;3.34;100.00
46724;BME280;32463;48.298;11.620;2023-02-12T08:26:32;98282.00;;;3.53;100.00
46724;BME280;32463;48.298;11.620;2023-02-12T08:29:05;98282.84;;;3.72;100.00
46724;BME280;32463;48.298;11.620;2023-02-12T08:31:37;98283.16;;;3.85;100.00
46724;BME280;32463;48.298;11.620;2023-02-12T08:34:05;98272.81;;;3.86;100.00
46724;BME280;32463;48.298;11.620;2023-02-12T08:36:37;98280.94;;;3.96;100.00
46724;BME280;32463;48.298;11.620;2023-02-12T08:39:07;98275.09;;;3.92;100.00
46724;BME280;32463;48.298;11.620;2023-02-12T08:41:34;98283.44;;;3.97;100.00
46724;BME280;32463;48.298;11.620;2023-02-12T08:44:03;98283.56;;;3.94;100.00
46724;BME280;32463;48.298;11.620;2023-02-12T08:46:38;98273.16;;;3.97;100.00
46724;BME280;32463;48.298;11.620;2023-02-12T08:49:08;98281.47;;;4.02;100.00
46724;BME280;32463;48.298;11.620;2023-02-12T08:51:38;98274.94;;;4.14;100.00
46724;BME280;32463;48.298;11.620;2023-02-12T08:54:07;98274.81;;;4.17;100.00
46724;BME280;32463;48.298;11.620;2023-02-12T08:56:35;98268.56;;;4.23;100.00
46724;BME280;32463;48.298;11.620;2023-02-12T08:59:03;98272.03;;;4.22;100.00
46724;BME280;32463;48.298;11.620;2023-02-12T09:01:33;98282.78;;;4.47;100.00
46724;BME280;32463;48.298;11.620;2023-02-12T09:04:03;98283.56;;;4.66;100.00
46724;BME280;32463;48.298;11.620;2023-02-12T09:06:32;98276.19;;;4.78;100.00
46724;BME280;32463;48.298;11.620;2023-02-12T09:08:59;98275.75;;;4.87;100.00
46724;BME280;32463;48.298;11.620;2023-02-12T09:11:27;98282.69;;;4.85;100.00
46724;BME280;32463;48.298;11.620;2023-02-12T09:14:00;98284.03;;;4.92;100.00
46724;BME280;32463;48.298;11.620;2023-02-12T09:16:29;98282.06;;;4.97;100.00
46724;BME280;32463;48.298;11.620;2023-02-12T09:18:56;98283.56;;;5.01;100.00
46724;BME280;32463;48.298;11.620;2023-02-12T09:21:23;98282.91;;;5.15;100.00
46724;BME280;32463;48.298;11.620;2023-02-12T09:23:51;98278.69;;;5.29;100.00
46724;BME280;32463;48.298;11.620;2023-02-12T09:26:20;98262.59;;;5.26;100.00
46724;BME280;32463;48.298;11.620;2023-02-12T09:28:48;98278.19;;;5.56;100.00
46724;BME280;32463;48.298;11.620;2023-02-12T09:31:19;98278.91;;;5.75;100.00
46724;BME280;32463;48.298;11.620;2023-02-12T09:33:47;98290.09;;;5.74;100.00
46724;BME280;32463;48.298;11.620;2023-02-12T09:36:15;98288.47;;;5.89;100.00
46724;BME280;32463;48.298;11.620;2023-02-12T09:38:42;98283.09;;;5.60;100.00
46724;BME280;32463;48.298;11.620;2023-02-12T09:41:34;98285.34;;;5.66;100.00
46724;BME280;32463;48.298;11.620;2023-02-12T09:44:16;98288.53;;;5.87;100.00
46724;BME280;32463;48.298;11.620;2023-02-12T09:47:26;98276.69;;;6.32;100.00
46724;BME280;32463;48.298;11.620;2023-02-12T09:50:05;98277.50;;;6.48;100.00
46724;BME280;32463;48.298;11.620;2023-02-12T09:52:36;98277.66;;;6.45;100.00
46724;BME280;32463;48.298;11.620;2023-02-12T09:55:03;98277.91;;;6.56;100.00
46724;BME280;32463;48.298;11.620;2023-02-12T09:57:35;98277.44;;;6.34;100.00
46724;BME280;32463;48.298;11.620;2023-02-12T10:00:10;98286.69;;;6.06;100.00
46724;BME280;32463;48.298;11.620;2023-02-12T10:02:40;98286.84;;;6.03;100.00
46724;BME280;32463;48.298;11.620;2023-02-12T10:05:28;98278.59;;;6.13;100.00
46724;BME280;32463;48.298;11.620;2023-02-12T10:16:30;98290.16;;;6.83;100.00
46724;BME280;32463;48.298;11.620;2023-02-12T10:19:45;98290.03;;;7.00;100.00
46724;BME280;32463;48.298;11.620;2023-02-12T10:27:44;98289.50;;;8.08;100.00
46724;BME280;32463;48.298;11.620;2023-02-12T10:30:25;98282.84;;;8.19;100.00
46724;BME280;32463;48.298;11.620;2023-02-12T10:33:01;98280.00;;;8.50;100.00
46724;BME280;32463;48.298;11.620;2023-02-12T10:35:29;98283.44;;;8.51;100.00
46724;BME280;32463;48.298;11.620;2023-02-12T10:38:06;98277.91;;;8.28;100.00
46724;BME280;32463;48.298;11.620;2023-02-12T10:40:43;98280.44;;;8.16;100.00
46724;BME280;32463;48.298;11.620;2023-02-12T10:43:11;98290.56;;;8.33;100.00
46724;BME280;32463;48.298;11.620;2023-02-12T10:45:40;98281.13;;;8.46;100.00
46724;BME280;32463;48.298;11.620;2023-02-12T10:48:21;98290.00;;;8.42;100.00
46724;BME280;32463;48.298;11.620;2023-02-12T10:53:41;98290.03;;;8.82;100.00
46724;BME280;32463;48.298;11.620;2023-02-12T10:58:57;98291.25;;;9.54;100.00
46724;BME280;32463;48.298;11.620;2023-02-12T11:01:30;98288.97;;;9.36;100.00
46724;BME280;32463;48.298;11.620;2023-02-12T11:03:59;98284.78;;;8.96;100.00
46724;BME280;32463;48.298;11.620;2023-02-12T11:06:58;98281.00;;;9.39;100.00
46724;BME280;32463;48.298;11.620;2023-02-12T11:09:30;98276.25;;;9.33;100.00
46724;BME280;32463;48.298;11.620;2023-02-12T11:11:59;98274.44;;;9.85;100.00
46724;BME280;32463;48.298;11.620;2023-02-12T11:14:27;98265.44;;;10.27;100.00
46724;BME280;32463;48.298;11.620;2023-02-12T11:16:55;98255.44;;;11.38;100.00
46724;BME280;32463;48.298;11.620;2023-02-12T11:19:28;98253.66;;;11.28;100.00
46724;BME280;32463;48.298;11.620;2023-02-12T11:22:12;98252.84;;;11.94;97.75
46724;BME280;32463;48.298;11.620;2023-02-12T11:24:44;98247.91;;;12.77;89.37
46724;BME280;32463;48.298;11.620;2023-02-12T11:27:25;98244.50;;;13.79;75.15
46724;BME280;32463;48.298;11.620;2023-02-12T11:30:14;98254.28;;;13.87;75.83
46724;BME280;32463;48.298;11.620;2023-02-12T11:32:42;98249.97;;;13.15;78.53
46724;BME280;32463;48.298;11.620;2023-02-12T11:35:22;98255.75;;;12.34;79.86
46724;BME280;32463;48.298;11.620;2023-02-12T11:37:54;98253.56;;;11.74;89.69
46724;BME280;32463;48.298;11.620;2023-02-12T11:40:24;98257.69;;;10.86;96.53
46724;BME280;32463;48.298;11.620;2023-02-12T11:42:58;98253.53;;;9.62;100.00
46724;BME280;32463;48.298;11.620;2023-02-12T11:45:51;98264.09;;;9.21;100.00
46724;BME280;32463;48.298;11.620;2023-02-12T11:48:20;98259.44;;;8.49;100.00
46724;BME280;32463;48.298;11.620;2023-02-12T11:50:50;98255.75;;;8.65;100.00
46724;BME280;32463;48.298;11.620;2023-02-12T11:53:32;98245.69;;;8.48;100.00
46724;BME280;32463;48.298;11.620;2023-02-12T11:56:03;98257.47;;;9.04;100.00
46724;BME280;32463;48.298;11.620;2023-02-12T11:58:31;98253.34;;;9.27;100.00
46724;BME280;32463;48.298;11.620;2023-02-12T12:01:18;98249.81;;;9.03;100.00
46724;BME280;32463;48.298;11.620;2023-02-12T12:03:59;98251.88;;;8.98;100.00
46724;BME280;32463;48.298;11.620;2023-02-12T12:06:37;98247.53;;;8.32;100.00
46724;BME280;32463;48.298;11.620;2023-02-12T12:09:17;98243.28;;;9.61;100.00
46724;BME280;32463;48.298;11.620;2023-02-12T12:12:09;98224.31;;;10.92;100.00
46724;BME280;32463;48.298;11.620;2023-02-12T12:14:41;98225.88;;;10.95;100.00
46724;BME280;32463;48.298;11.620;2023-02-12T12:17:28;98231.59;;;10.04;100.00
46724;BME280;32463;48.298;11.620;2023-02-12T12:20:21;98234.91;;;8.94;100.00
46724;BME280;32463;48.298;11.620;2023-02-12T12:25:51;98229.91;;;8.11;100.00
46724;BME280;32463;48.298;11.620;2023-02-12T12:28:39;98242.84;;;7.97;100.00
46724;BME280;32463;48.298;11.620;2023-02-12T12:31:32;98233.13;;;7.46;100.00
46724;BME280;32463;48.298;11.620;2023-02-12T12:37:00;98234.44;;;7.53;100.00
46724;BME280;32463;48.298;11.620;2023-02-12T12:48:46;98223.28;;;9.63;100.00
46724;BME280;32463;48.298;11.620;2023-02-12T12:51:55;98219.63;;;10.14;100.00
46724;BME280;32463;48.298;11.620;2023-02-12T13:09:51;98219.19;;;9.84;100.00
46724;BME280;32463;48.298;11.620;2023-02-12T13:21:03;98223.00;;;8.39;100.00
46724;BME280;32463;48.298;11.620;2023-02-12T13:26:47;98213.69;;;10.49;100.00
46724;BME280;32463;48.298;11.620;2023-02-12T13:29:25;98214.22;;;11.00;96.37
46724;BME280;32463;48.298;11.620;2023-02-12T13:34:33;98210.34;;;11.73;84.13
46724;BME280;32463;48.298;11.620;2023-02-12T13:37:02;98205.50;;;11.24;83.97
46724;BME280;32463;48.298;11.620;2023-02-12T13:39:39;98209.84;;;10.31;91.13
46724;BME280;32463;48.298;11.620;2023-02-12T13:42:27;98205.97;;;11.18;86.67
46724;BME280;32463;48.298;11.620;2023-02-12T13:56:32;98194.53;;;11.87;73.29
46724;BME280;32463;48.298;11.620;2023-02-12T13:59:00;98197.38;;;11.51;75.24
46724;BME280;32463;48.298;11.620;2023-02-12T14:01:39;98198.06;;;11.86;75.65
46724;BME280;32463;48.298;11.620;2023-02-12T14:07:05;98191.94;;;11.54;77.59
46724;BME280;32463;48.298;11.620;2023-02-12T14:12:16;98186.44;;;12.12;70.39
46724;BME280;32463;48.298;11.620;2023-02-12T14:14:46;98187.69;;;11.19;78.43
46724;BME280;32463;48.298;11.620;2023-02-12T14:27:52;98191.94;;;10.74;80.87
46724;BME280;32463;48.298;11.620;2023-02-12T14:30:30;98193.84;;;10.37;83.46
46724;BME280;32463;48.298;11.620;2023-02-12T14:35:35;98186.72;;;10.52;79.10
46724;BME280;32463;48.298;11.620;2023-02-12T14:40:44;98192.84;;;9.54;82.15
46724;BME280;32463;48.298;11.620;2023-02-12T14:43:34;98192.47;;;9.22;85.69
46724;BME280;32463;48.298;11.620;2023-02-12T14:49:18;98193.56;;;8.00;100.00
46724;BME280;32463;48.298;11.620;2023-02-12T14:51:54;98182.38;;;8.14;100.00
46724;BME280;32463;48.298;11.620;2023-02-12T14:54:31;98199.72;;;7.85;100.00
46724;BME280;32463;48.298;11.620;2023-02-12T14:57:03;98191.44;;;7.66;100.00
46724;BME280;32463;48.298;11.620;2023-02-12T14:59:39;98178.91;;;7.74;100.00
46724;BME280;32463;48.298;11.620;2023-02-12T15:02:13;98180.59;;;7.61;100.00
46724;BME280;32463;48.298;11.620;2023-02-12T15:04:43;98185.03;;;7.59;100.00
46724;BME280;32463;48.298;11.620;2023-02-12T15:07:16;98173.41;;;7.52;100.00
46724;BME280;32463;48.298;11.620;2023-02-12T15:09:51;98181.34;;;7.34;100.00
46724;BME280;32463;48.298;11.620;2023-02-12T15:12:20;98176.94;;;7.22;100.00
46724;BME280;32463;48.298;11.620;2023-02-12T15:15:32;98183.00;;;7.07;100.00
46724;BME280;32463;48.298;11.620;2023-02-12T15:18:04;98174.91;;;6.99;100.00
46724;BME280;32463;48.298;11.620;2023-02-12T15:20:38;98183.56;;;6.98;100.00
46724;BME280;32463;48.298;11.620;2023-02-12T15:25:57;98174.69;;;6.73;100.00
46724;BME280;32463;48.298;11.620;2023-02-12T15:28:28;98177.25;;;6.73;100.00
46724;BME280;32463;48.298;11.620;2023-02-12T15:31:00;98172.47;;;6.67;100.00
46724;BME280;32463;48.298;11.620;2023-02-12T15:33:33;98165.81;;;6.49;100.00